Terminal Aerodrome Forecast
Issued by NWS

Current Version | Previous Version | Graphics & Text | Print | Product List | Glossary On
Versions: 1 2 3 4 5 6 7 8 9 10 11 12 13 14 15 16 17 18 19 20 21 22 23 24 25
000
FTUS41 KRLX 131700
TAFCKB
TAF
KCKB 131721Z 1318/1418 28006KT P6SM BKN025 OVC035
     FM132300 31008KT P6SM BKN035
     FM140200 35004KT P6SM SCT050
     FM140700 00000KT 5SM BR SKC
     FM141000 00000KT 1SM BR SCT001
     FM141300 00000KT 3SM BR FEW002
     FM141400 00000KT P6SM FEW040=

USA.gov is the U.S. government's official web portal to all federal, state and local government web resources and services.